Time;durP1;ratioP1;P1;durP2;ratioP2;P2;SDS_P1;SDS_P2;PMS_P1;PMS_P2;Temp;Humidity;BMP_temperature;BMP_pressure;BME280_temperature;BME280_humidity;BME280_pressure;Samples;Min_cycle;Max_cycle;Signal;HPM_P1;HPM_P2
2022/04/21 00:01:32;;;;;;;9.17;7.90;;;;;;;-0.01;84.40;97279.31;6155136;28;20241;-81
2022/04/21 00:04:34;;;;;;;8.53;7.57;;;;;;;-0.06;83.99;97278.66;6154453;28;20237;-80
2022/04/21 00:07:37;;;;;;;10.33;8.37;;;;;;;-0.10;84.05;97278.88;6138519;28;20246;-80
2022/04/21 00:10:38;;;;;;;9.27;7.47;;;;;;;-0.13;84.40;97277.25;6154365;28;20373;-80
2022/04/21 00:13:40;;;;;;;11.80;8.63;;;;;;;-0.13;84.61;97274.66;6138316;28;20646;-80
2022/04/21 00:16:42;;;;;;;10.70;8.43;;;;;;;-0.13;84.15;97277.25;6137636;28;20229;-80
2022/04/21 00:19:45;;;;;;;9.80;8.47;;;;;;;-0.13;84.67;97279.84;6138866;28;20584;-80
2022/04/21 00:26:07;;;;;;;10.53;8.50;;;;;;;-0.12;84.55;97271.16;6157287;28;20241;-80
2022/04/21 00:29:09;;;;;;;11.13;9.23;;;;;;;-0.15;84.45;97268.69;6140658;28;20694;-80
2022/04/21 00:32:12;;;;;;;10.97;8.60;;;;;;;-0.22;84.34;97267.28;6164326;28;20279;-79
2022/04/21 00:35:17;;;;;;;9.77;7.97;;;;;;;-0.29;84.74;97268.44;6138798;28;20728;-80
2022/04/21 00:38:19;;;;;;;8.20;6.80;;;;;;;-0.32;85.01;97272.94;6140243;28;20229;-80
2022/04/21 00:41:21;;;;;;;10.40;8.10;;;;;;;-0.32;84.79;97270.34;6154687;28;20225;-80
2022/04/21 00:44:23;;;;;;;9.50;8.33;;;;;;;-0.33;84.91;97277.28;6140087;28;20533;-80
2022/04/21 00:47:26;;;;;;;10.83;9.03;;;;;;;-0.35;84.58;97273.91;6157255;28;20316;-80
2022/04/21 00:50:31;;;;;;;10.20;9.03;;;;;;;-0.36;84.34;97272.22;6155719;28;20296;-80
2022/04/21 00:53:33;;;;;;;13.27;9.77;;;;;;;-0.38;84.72;97268.84;6138142;28;20229;-81
2022/04/21 00:56:35;;;;;;;10.97;9.10;;;;;;;-0.40;84.93;97266.31;6153820;28;20287;-80
2022/04/21 00:59:37;;;;;;;13.33;9.30;;;;;;;-0.40;85.17;97260.31;6155403;28;20316;-80
2022/04/21 01:02:47;;;;;;;11.73;8.63;;;;;;;-0.42;85.06;97262.97;6157989;28;20237;-80
2022/04/21 01:05:49;;;;;;;13.87;10.33;;;;;;;-0.42;84.86;97264.72;6158285;28;20238;-79
2022/04/21 01:08:51;;;;;;;11.03;9.47;;;;;;;-0.43;85.24;97260.44;6158889;28;20244;-80
2022/04/21 01:11:53;;;;;;;12.23;9.60;;;;;;;-0.47;85.23;97258.88;6159298;28;20222;-80
2022/04/21 01:14:55;;;;;;;14.47;9.60;;;;;;;-0.45;85.02;97259.66;6157791;28;20287;-80
2022/04/21 01:17:58;;;;;;;12.53;9.60;;;;;;;-0.41;85.54;97266.41;6157598;28;20288;-80
2022/04/21 01:21:00;;;;;;;10.50;8.67;;;;;;;-0.38;85.52;97255.88;6158897;28;20229;-80
2022/04/21 01:24:04;;;;;;;13.23;10.20;;;;;;;-0.34;85.43;97256.59;6158156;28;20404;-81
2022/04/21 01:27:06;;;;;;;12.23;9.67;;;;;;;-0.33;85.46;97255.69;6163879;28;20260;-80
2022/04/21 01:30:10;;;;;;;12.93;10.23;;;;;;;-0.38;85.31;97248.94;6141538;28;20217;-80
2022/04/21 01:33:13;;;;;;;10.03;8.87;;;;;;;-0.45;85.35;97241.53;6157207;28;20221;-80
2022/04/21 01:36:15;;;;;;;13.70;11.77;;;;;;;-0.49;85.71;97239.97;6158544;28;20209;-80
2022/04/21 01:42:37;;;;;;;13.43;10.57;;;;;;;-0.57;85.74;97247.22;6174037;28;20269;-80
2022/04/21 01:45:41;;;;;;;13.63;10.70;;;;;;;-0.54;85.97;97249.69;6141660;28;20316;-80
2022/04/21 01:48:43;;;;;;;14.50;11.00;;;;;;;-0.48;86.00;97244.25;6157683;28;20743;-80
2022/04/21 01:51:45;;;;;;;15.17;11.33;;;;;;;-0.43;85.93;97242.31;6157736;28;20361;-80
2022/04/21 01:54:50;;;;;;;13.40;9.97;;;;;;;-0.43;86.17;97234.53;6157633;28;20234;-80
2022/04/21 01:57:53;;;;;;;11.77;9.57;;;;;;;-0.47;85.86;97236.41;6157359;28;20309;-79
2022/04/21 02:00:55;;;;;;;12.53;9.67;;;;;;;-0.51;86.09;97234.03;6158509;28;20233;-80
2022/04/21 02:03:57;;;;;;;15.13;11.10;;;;;;;-0.55;86.12;97235.91;6172539;28;20234;-79
2022/04/21 02:06:59;;;;;;;11.90;10.47;;;;;;;-0.59;86.06;97234.34;6141390;28;20284;-80
2022/04/21 02:10:01;;;;;;;13.43;10.90;;;;;;;-0.61;85.77;97228.41;6157510;28;20233;-79
2022/04/21 02:13:03;;;;;;;14.57;11.27;;;;;;;-0.63;86.14;97222.44;6156227;28;20245;-80
2022/04/21 02:16:06;;;;;;;14.10;11.33;;;;;;;-0.64;86.45;97219.91;6141521;28;20241;-81
2022/04/21 02:19:08;;;;;;;15.20;11.30;;;;;;;-0.65;86.15;97213.88;6156442;28;20230;-80
2022/04/21 02:22:10;;;;;;;11.87;10.13;;;;;;;-0.63;86.39;97214.66;6157216;28;20234;-80
2022/04/21 02:25:14;;;;;;;12.47;9.87;;;;;;;-0.60;86.52;97216.28;6147591;28;20320;-80
2022/04/21 02:28:17;;;;;;;16.77;11.83;;;;;;;-0.59;86.32;97216.19;6149765;28;20246;-80
2022/04/21 02:31:19;;;;;;;12.67;11.00;;;;;;;-0.57;86.41;97216.13;6142928;28;20799;-80
2022/04/21 02:34:22;;;;;;;12.90;10.60;;;;;;;-0.56;86.62;97216.06;6140389;28;20232;-80
2022/04/21 02:37:24;;;;;;;14.80;10.70;;;;;;;-0.54;86.40;97209.06;6156224;28;20312;-80
2022/04/21 02:40:26;;;;;;;12.17;10.40;;;;;;;-0.55;86.66;97204.81;6132840;28;20273;-80
2022/04/21 02:43:28;;;;;;;12.47;9.77;;;;;;;-0.60;86.93;97195.56;6153535;28;20328;-80
2022/04/21 02:46:33;;;;;;;13.00;9.90;;;;;;;-0.62;86.70;97203.41;6155917;28;20281;-80
2022/04/21 02:49:37;;;;;;;12.67;10.00;;;;;;;-0.61;86.88;97197.31;6140649;28;20261;-81
2022/04/21 02:52:40;;;;;;;15.07;11.43;;;;;;;-0.61;87.04;97205.09;6155885;28;20694;-80
2022/04/21 02:59:03;;;;;;;15.63;11.60;;;;;;;-0.76;86.89;97197.94;6163017;28;20629;-80
2022/04/21 03:02:05;;;;;;;14.03;12.53;;;;;;;-0.80;86.91;97197.22;6157617;28;20615;-80
2022/04/21 03:05:08;;;;;;;15.87;11.40;;;;;;;-0.84;86.91;97195.69;6158329;28;20783;-80
2022/04/21 03:08:10;;;;;;;14.70;12.07;;;;;;;-0.87;86.81;97201.00;6140441;28;20308;-80
2022/04/21 03:11:12;;;;;;;14.70;11.93;;;;;;;-0.91;86.90;97191.69;6143132;28;20233;-80
2022/04/21 03:14:15;;;;;;;16.43;11.37;;;;;;;-0.92;87.11;97196.94;6140437;28;20229;-80
2022/04/21 03:17:17;;;;;;;14.00;11.70;;;;;;;-0.95;86.91;97203.09;6156986;28;20234;-79
2022/04/21 03:26:59;;;;;;;18.67;14.47;;;;;;;-0.99;86.92;97203.25;6165890;28;20328;-80
2022/04/21 03:30:05;;;;;;;18.77;13.40;;;;;;;-1.02;87.39;97208.59;6154422;28;20222;-81
2022/04/21 03:33:07;;;;;;;14.93;11.57;;;;;;;-1.04;87.59;97212.97;6140602;28;20213;-80
2022/04/21 03:36:11;;;;;;;17.77;13.47;;;;;;;-1.05;87.14;97212.13;6153965;28;20681;-80
2022/04/21 03:39:13;;;;;;;19.37;13.67;;;;;;;-1.07;87.01;97213.94;6155015;28;20213;-80
2022/04/21 03:42:24;;;;;;;17.00;13.37;;;;;;;-1.10;87.53;97216.69;6154896;28;20230;-80
2022/04/21 03:45:26;;;;;;;16.60;12.73;;;;;;;-1.12;87.61;97213.31;6171545;28;20230;-80
2022/04/21 03:48:29;;;;;;;15.67;12.53;;;;;;;-1.15;87.63;97216.03;6156448;28;20313;-80
2022/04/21 03:51:31;;;;;;;14.63;11.73;;;;;;;-1.16;87.51;97220.34;6138507;28;20226;-82
2022/04/21 03:54:33;;;;;;;19.53;13.77;;;;;;;-1.16;87.64;97225.53;6155446;28;20736;-80
2022/04/21 03:57:35;;;;;;;18.10;14.20;;;;;;;-1.18;87.73;97214.38;6155541;28;20233;-80
2022/04/21 04:00:37;;;;;;;19.17;14.73;;;;;;;-1.18;87.74;97224.75;6154190;28;20218;-80
2022/04/21 04:03:39;;;;;;;17.33;13.83;;;;;;;-1.19;87.91;97230.81;6157821;28;20617;-80
2022/04/21 04:13:24;;;;;;;18.60;14.00;;;;;;;-1.13;87.92;97227.16;6153937;28;20324;-80
2022/04/21 04:16:26;;;;;;;19.13;13.30;;;;;;;-1.14;88.00;97217.72;6154919;28;20233;-80
2022/04/21 04:19:28;;;;;;;18.07;13.77;;;;;;;-1.11;87.75;97222.75;6155023;28;20234;-80
2022/04/21 04:22:35;;;;;;;20.60;14.77;;;;;;;-1.08;88.10;97219.19;6154589;28;20721;-80
2022/04/21 04:25:37;;;;;;;19.87;14.27;;;;;;;-1.06;87.78;97228.56;6119062;28;20274;-80
2022/04/21 04:28:39;;;;;;;19.87;14.20;;;;;;;-1.08;87.84;97232.13;6115046;28;20317;-80
2022/04/21 04:31:41;;;;;;;19.70;13.73;;;;;;;-1.10;87.98;97231.38;6127877;28;20221;-80
2022/04/21 04:34:44;;;;;;;19.70;15.23;;;;;;;-1.09;88.01;97231.28;6138854;28;20745;-80
2022/04/21 04:37:46;;;;;;;20.83;16.10;;;;;;;-1.06;87.78;97230.31;6144570;28;20229;-80
2022/04/21 04:40:48;;;;;;;17.70;13.77;;;;;;;-1.04;87.92;97229.38;6145664;28;20233;-82
2022/04/21 04:43:51;;;;;;;23.70;16.77;;;;;;;-0.98;88.07;97230.84;6162460;28;20370;-80
2022/04/21 04:46:53;;;;;;;19.53;15.33;;;;;;;-0.91;88.10;97229.69;6163499;28;20233;-80
2022/04/21 04:49:54;;;;;;;22.17;17.37;;;;;;;-0.87;87.83;97234.69;6145609;28;20249;-80
2022/04/21 04:52:58;;;;;;;25.63;16.73;;;;;;;-0.87;88.00;97236.41;6162404;28;20225;-80
2022/04/21 04:56:00;;;;;;;23.63;17.03;;;;;;;-0.87;88.22;97236.41;6161606;28;20237;-80
2022/04/21 04:59:02;;;;;;;22.23;16.53;;;;;;;-0.87;87.67;97237.25;6148590;28;20766;-79
2022/04/21 05:02:05;;;;;;;18.73;15.27;;;;;;;-0.86;87.77;97238.09;6181176;28;20233;-81
2022/04/21 05:05:08;;;;;;;20.80;15.57;;;;;;;-0.80;87.94;97235.28;6163309;28;20604;-81
2022/04/21 05:08:10;;;;;;;23.97;17.00;;;;;;;-0.70;87.93;97235.72;6161681;28;20312;-80
2022/04/21 05:11:12;;;;;;;22.97;17.10;;;;;;;-0.66;87.74;97229.50;6161821;28;20657;-80
2022/04/21 05:14:15;;;;;;;22.60;17.30;;;;;;;-0.62;87.70;97218.94;6144903;28;20313;-80
2022/04/21 05:17:17;;;;;;;22.87;16.60;;;;;;;-0.57;87.81;97226.50;6161247;28;20287;-80
2022/04/21 05:20:19;;;;;;;19.30;14.97;;;;;;;-0.52;87.64;97224.56;6144855;28;20234;-80
2022/04/21 05:23:23;;;;;;;18.67;14.13;;;;;;;-0.49;87.49;97224.41;6162173;28;20744;-80
2022/04/21 05:26:26;;;;;;;22.80;17.23;;;;;;;-0.43;88.04;97221.56;6146885;28;20234;-80
2022/04/21 05:32:51;;;;;;;19.50;15.73;;;;;;;-0.33;87.68;97217.66;6161330;28;20765;-80
2022/04/21 05:35:55;;;;;;;21.70;16.30;;;;;;;-0.30;87.37;97214.09;6163848;28;20324;-80
2022/04/21 05:38:57;;;;;;;24.07;17.83;;;;;;;-0.28;87.31;97215.69;6162501;28;20284;-80
2022/04/21 05:41:59;;;;;;;24.40;17.63;;;;;;;-0.19;87.86;97210.09;6162971;28;20316;-80
2022/04/21 05:45:02;;;;;;;21.00;16.70;;;;;;;-0.06;87.60;97212.97;6162853;28;20237;-80
2022/04/21 05:48:05;;;;;;;26.50;19.77;;;;;;;0.05;87.51;97209.88;6158625;28;20218;-80
2022/04/21 05:51:09;;;;;;;24.47;18.53;;;;;;;0.16;87.52;97215.44;6156873;28;20242;-80
2022/04/21 05:54:12;;;;;;;24.80;18.60;;;;;;;0.20;87.31;97217.78;6158460;28;20218;-80
2022/04/21 05:57:14;;;;;;;25.60;17.73;;;;;;;0.27;87.24;97216.63;6158422;28;20570;-81
2022/04/21 06:00:16;;;;;;;25.50;17.90;;;;;;;0.34;87.35;97207.63;6157240;28;20222;-81
2022/04/21 06:03:19;;;;;;;25.33;19.47;;;;;;;0.40;87.44;97206.47;6156903;28;20324;-80
2022/04/21 06:06:20;;;;;;;24.23;19.10;;;;;;;0.47;87.38;97213.09;6140156;28;20305;-81
2022/04/21 06:09:23;;;;;;;25.63;17.43;;;;;;;0.59;87.17;97212.50;6158984;28;20271;-80
2022/04/21 06:12:25;;;;;;;27.93;18.97;;;;;;;0.70;87.43;97217.16;6158307;28;20233;-80
2022/04/21 06:15:28;;;;;;;23.73;18.07;;;;;;;0.83;87.40;97214.78;6141655;28;20755;-80
2022/04/21 06:18:30;;;;;;;27.93;19.73;;;;;;;0.93;87.18;97213.44;6140906;28;20233;-80
2022/04/21 06:21:32;;;;;;;27.33;19.13;;;;;;;1.00;87.46;97205.25;6156487;28;20233;-80
2022/04/21 06:24:35;;;;;;;22.93;17.37;;;;;;;1.15;87.06;97208.00;6151793;28;20237;-81
2022/04/21 06:27:37;;;;;;;23.87;18.87;;;;;;;1.31;87.48;97214.09;6157060;28;20236;-80
2022/04/21 06:30:40;;;;;;;23.37;18.77;;;;;;;1.41;87.43;97213.56;6141201;28;20621;-80
2022/04/21 06:33:42;;;;;;;25.47;18.90;;;;;;;1.58;87.31;97211.88;6156653;28;20253;-80
2022/04/21 06:36:43;;;;;;;30.07;23.17;;;;;;;1.77;87.51;97207.38;6155974;28;20230;-80
2022/04/21 06:39:46;;;;;;;25.57;20.50;;;;;;;1.93;87.26;97207.38;6157370;28;20249;-80
2022/04/21 06:42:48;;;;;;;29.10;21.10;;;;;;;2.11;87.30;97207.25;6156265;28;20221;-80
2022/04/21 06:49:14;;;;;;;31.27;22.67;;;;;;;2.59;87.49;97200.28;6171631;28;20324;-80
2022/04/21 06:52:15;;;;;;;25.93;19.77;;;;;;;2.90;86.55;97213.22;6157761;28;20230;-80
2022/04/21 06:55:17;;;;;;;26.27;20.73;;;;;;;3.29;85.52;97209.25;6140391;28;20242;-80
2022/04/21 06:58:19;;;;;;;30.33;20.40;;;;;;;3.61;84.31;97202.94;6139850;28;20239;-80
2022/04/21 07:01:22;;;;;;;23.17;19.00;;;;;;;3.99;83.27;97208.44;6156536;28;20624;-80
2022/04/21 07:04:27;;;;;;;22.90;18.53;;;;;;;4.40;81.63;97207.63;6155311;28;20354;-81
2022/04/21 07:07:29;;;;;;;20.83;17.30;;;;;;;4.88;79.65;97200.22;6139112;28;20236;-80
2022/04/21 07:10:32;;;;;;;19.50;16.40;;;;;;;5.39;77.82;97190.69;6140060;28;20239;-80
2022/04/21 07:13:34;;;;;;;18.63;16.27;;;;;;;5.91;74.64;97194.06;6139153;28;20590;-81
2022/04/21 07:16:36;;;;;;;23.03;18.57;;;;;;;6.30;69.82;97194.81;6155511;28;20281;-81
2022/04/21 07:19:38;;;;;;;20.10;16.67;;;;;;;6.86;68.12;97190.75;6156800;28;20848;-81
2022/04/21 07:22:41;;;;;;;17.03;15.20;;;;;;;7.38;68.12;97189.50;6157215;28;20794;-81
2022/04/21 07:25:43;;;;;;;16.73;14.20;;;;;;;7.77;66.73;97183.84;6150424;28;20232;-81
2022/04/21 07:28:45;;;;;;;19.50;17.27;;;;;;;7.90;60.43;97182.88;6163608;28;20226;-81
2022/04/21 07:31:48;;;;;;;22.70;17.43;;;;;;;8.21;60.71;97190.06;6139847;28;20602;-82
2022/04/21 07:34:50;;;;;;;17.50;15.53;;;;;;;8.52;60.55;97191.13;6156959;28;20233;-81
2022/04/21 07:37:53;;;;;;;20.00;16.17;;;;;;;8.89;58.42;97186.34;6139435;28;20233;-81
2022/04/21 07:40:56;;;;;;;18.07;15.10;;;;;;;9.21;57.83;97186.34;6138885;28;20234;-82
2022/04/21 07:43:58;;;;;;;21.57;17.40;;;;;;;9.54;55.31;97193.25;6154753;28;20232;-82
2022/04/21 07:47:00;;;;;;;19.30;16.20;;;;;;;9.72;57.20;97183.78;6139178;28;20301;-82
2022/04/21 07:50:02;;;;;;;21.60;16.80;;;;;;;9.75;56.04;97185.34;6138829;28;20604;-82
2022/04/21 07:53:13;;;;;;;19.03;16.30;;;;;;;9.78;55.22;97185.91;6154753;28;20231;-81
2022/04/21 07:56:15;;;;;;;16.60;14.67;;;;;;;10.24;55.27;97177.56;6154801;28;20234;-81
2022/04/21 07:59:17;;;;;;;16.07;14.37;;;;;;;10.95;54.02;97185.34;6156097;28;20662;-82
2022/04/21 08:02:19;;;;;;;17.33;15.37;;;;;;;11.03;52.23;97181.06;6154572;28;20273;-81
2022/04/21 08:05:22;;;;;;;20.37;17.27;;;;;;;11.19;50.48;97183.13;6153830;28;20701;-82
2022/04/21 08:08:24;;;;;;;19.77;17.57;;;;;;;10.88;53.29;97187.69;6154394;28;20327;-82
2022/04/21 08:11:26;;;;;;;17.00;15.07;;;;;;;11.15;52.01;97176.47;6153988;28;20315;-81
2022/04/21 08:14:28;;;;;;;20.03;17.07;;;;;;;11.00;50.96;97183.97;6156044;28;20226;-82
2022/04/21 08:17:31;;;;;;;21.70;16.57;;;;;;;10.97;51.96;97186.91;6140174;28;20715;-82
2022/04/21 08:20:34;;;;;;;20.23;16.40;;;;;;;11.27;50.68;97185.09;6155867;28;20725;-82
2022/04/21 08:23:37;;;;;;;16.20;14.23;;;;;;;11.85;48.63;97177.09;6158353;28;20237;-82
2022/04/21 08:33:44;;;;;;;20.50;15.80;;;;;;;11.18;50.80;97184.09;6153671;28;20226;-82
2022/04/21 08:36:46;;;;;;;18.17;16.27;;;;;;;11.31;50.19;97178.53;6137263;28;20245;-81
2022/04/21 08:39:48;;;;;;;25.77;17.03;;;;;;;11.50;49.66;97177.69;6154168;28;20702;-81
2022/04/21 08:42:52;;;;;;;18.80;16.63;;;;;;;12.15;48.95;97180.34;6138457;28;20206;-81
2022/04/21 08:45:55;;;;;;;17.87;15.50;;;;;;;11.88;48.07;97179.47;6138645;28;20423;-81
2022/04/21 08:49:00;;;;;;;19.57;16.47;;;;;;;12.03;48.04;97180.66;6153435;28;20233;-82
2022/04/21 08:52:02;;;;;;;17.70;15.80;;;;;;;12.09;48.89;97182.72;6154331;28;20320;-81
2022/04/21 08:55:04;;;;;;;19.30;17.30;;;;;;;11.92;48.59;97178.19;6153911;28;20299;-81
2022/04/21 08:58:06;;;;;;;18.67;16.67;;;;;;;11.93;47.96;97177.22;6155212;28;20235;-81
2022/04/21 09:01:08;;;;;;;18.03;15.77;;;;;;;11.89;47.52;97171.38;6153189;28;20582;-81
2022/04/21 09:04:10;;;;;;;18.67;16.70;;;;;;;12.14;48.22;97180.50;6153044;28;20240;-82
2022/04/21 09:07:20;;;;;;;20.37;17.37;;;;;;;12.60;47.16;97181.38;6137038;28;20859;-82
2022/04/21 09:10:23;;;;;;;19.57;17.13;;;;;;;12.84;45.87;97174.56;6155455;28;20645;-82
2022/04/21 09:13:40;;;;;;;21.23;18.70;;;;;;;12.72;47.43;97170.44;6153821;28;20247;-82
2022/04/21 09:16:42;;;;;;;20.47;17.67;;;;;;;12.84;47.40;97171.06;6153534;28;20232;-81
2022/04/21 09:19:55;;;;;;;22.13;17.30;;;;;;;12.81;46.85;97168.72;6145567;28;20767;-81
2022/04/21 09:23:00;;;;;;;18.13;15.80;;;;;;;13.01;46.18;97172.91;6133910;28;20243;-82
2022/04/21 09:26:17;;;;;;;17.90;13.33;;;;;;;13.97;44.67;97163.25;6171505;28;20762;-81
2022/04/21 09:29:29;;;;;;;16.10;14.40;;;;;;;14.37;42.33;97173.25;6167703;28;20734;-82
2022/04/21 09:32:31;;;;;;;16.47;14.57;;;;;;;14.01;44.60;97162.78;6160781;28;20307;-82
2022/04/21 09:35:37;;;;;;;16.17;14.20;;;;;;;14.10;42.38;97166.31;6161253;28;20372;-82
2022/04/21 09:38:39;;;;;;;14.73;13.23;;;;;;;14.92;42.36;97155.03;6159789;28;20368;-81
2022/04/21 09:41:44;;;;;;;17.10;14.13;;;;;;;14.88;41.34;97156.34;6158000;28;20252;-82
2022/04/21 09:48:10;;;;;;;17.97;13.27;;;;;;;15.48;40.92;97156.91;6159076;28;20722;-82
2022/04/21 09:51:15;;;;;;;14.97;13.37;;;;;;;15.38;39.85;97156.25;6159108;28;20232;-82
2022/04/21 09:54:18;;;;;;;17.43;14.87;;;;;;;15.03;40.92;97160.03;6157375;28;20218;-82
2022/04/21 09:57:31;;;;;;;15.77;14.17;;;;;;;15.36;40.47;97150.28;6158310;28;20240;-81
2022/04/21 10:00:35;;;;;;;16.33;14.70;;;;;;;14.74;41.08;97162.31;6157163;28;20280;-82
2022/04/21 10:03:41;;;;;;;16.60;14.17;;;;;;;14.62;41.64;97152.97;6140735;28;20735;-81
2022/04/21 10:06:44;;;;;;;13.23;12.03;;;;;;;15.12;40.85;97137.78;6156489;28;20228;-81
2022/04/21 10:09:48;;;;;;;12.33;11.03;;;;;;;16.12;40.33;97133.06;6158474;28;20218;-82
2022/04/21 10:12:50;;;;;;;13.23;10.93;;;;;;;16.85;38.36;97127.44;6157522;28;20239;-81
2022/04/21 10:15:53;;;;;;;13.47;12.17;;;;;;;17.42;36.69;97129.72;6158098;28;20244;-82
2022/04/21 10:18:57;;;;;;;13.73;11.17;;;;;;;17.15;36.26;97126.59;6140716;28;20441;-82
2022/04/21 10:22:04;;;;;;;12.43;11.33;;;;;;;17.20;37.79;97126.88;6141906;28;20664;-82
2022/04/21 10:25:07;;;;;;;11.20;10.20;;;;;;;17.48;37.27;97123.63;6162356;28;20228;-82
2022/04/21 10:28:46;;;;;;;13.27;12.03;;;;;;;17.11;36.26;97119.09;6138390;28;20631;-81
2022/04/21 10:32:00;;;;;;;12.80;11.53;;;;;;;16.59;36.93;97120.56;6128632;28;20234;-82
2022/04/21 10:35:16;;;;;;;14.43;13.03;;;;;;;16.02;39.61;97111.13;6137432;28;20226;-82
2022/04/21 10:38:20;;;;;;;14.07;12.67;;;;;;;15.70;39.29;97120.84;6153590;28;20261;-81
2022/04/21 10:41:35;;;;;;;13.30;12.00;;;;;;;16.25;39.52;97120.06;6138749;28;20311;-81
2022/04/21 10:44:48;;;;;;;13.50;12.30;;;;;;;16.05;39.09;97108.97;6137712;28;20337;-82
2022/04/21 10:48:38;;;;;;;14.30;12.43;;;;;;;17.09;36.52;97095.28;6137477;28;20264;-82
2022/04/21 10:58:34;;;;;;;14.23;12.80;;;;;;;17.46;36.63;97091.84;6059337;29;20248;-81
2022/04/21 11:01:38;;;;;;;14.80;13.30;;;;;;;17.78;36.40;97082.69;6059281;29;20323;-82
2022/04/21 11:04:40;;;;;;;13.37;12.13;;;;;;;17.54;36.63;97086.41;6035997;29;20228;-81
2022/04/21 11:07:59;;;;;;;14.27;12.73;;;;;;;17.26;37.39;97088.84;6092130;29;20247;-82
2022/04/21 11:11:03;;;;;;;14.83;13.43;;;;;;;17.22;37.47;97081.34;6066588;29;20717;-82
2022/04/21 11:14:06;;;;;;;14.47;12.27;;;;;;;17.10;38.09;97082.78;6083090;29;20770;-83
2022/04/21 11:17:09;;;;;;;15.40;13.90;;;;;;;16.97;36.90;97094.84;6089830;29;20754;-81
2022/04/21 11:20:27;;;;;;;13.60;12.30;;;;;;;16.60;39.05;97087.56;6069226;29;20254;-81
2022/04/21 11:23:31;;;;;;;14.70;13.30;;;;;;;16.82;37.90;97080.66;6094032;29;20784;-81
2022/04/21 11:26:33;;;;;;;14.10;12.60;;;;;;;17.73;37.01;97094.94;6094086;28;20762;-82
2022/04/21 11:29:35;;;;;;;15.13;13.27;;;;;;;17.30;37.29;97076.78;6139459;28;20233;-84
2022/04/21 11:32:38;;;;;;;12.07;10.80;;;;;;;17.93;37.66;97080.88;6157454;28;20320;-82
2022/04/21 11:35:42;;;;;;;11.13;10.10;;;;;;;17.41;36.72;97083.53;6162524;28;20713;-82
2022/04/21 11:38:47;;;;;;;8.37;7.63;;;;;;;17.99;36.37;97077.47;6163493;28;20598;-82
2022/04/21 11:41:49;;;;;;;8.53;7.67;;;;;;;19.07;35.00;97069.50;6156773;28;20245;-81
2022/04/21 11:44:51;;;;;;;9.80;8.80;;;;;;;18.16;34.03;97078.13;6157978;28;20237;-83
2022/04/21 11:48:15;;;;;;;9.47;8.57;;;;;;;18.28;33.84;97057.06;6172861;28;20319;-82
2022/04/21 11:51:24;;;;;;;9.77;8.87;;;;;;;18.55;36.50;97068.94;6149319;28;20238;-82
2022/04/21 11:54:27;;;;;;;9.53;8.53;;;;;;;19.16;34.45;97056.84;6155147;28;20249;-82
2022/04/21 11:57:44;;;;;;;10.20;9.20;;;;;;;19.14;33.16;97049.00;6154492;28;20226;-82
2022/04/21 12:07:29;;;;;;;7.27;6.63;;;;;;;18.68;33.01;97039.69;6153711;28;20707;-82
2022/04/21 12:10:31;;;;;;;7.37;6.70;;;;;;;17.93;35.16;97040.00;6156595;28;20905;-82
2022/04/21 12:13:35;;;;;;;5.90;5.40;;;;;;;17.96;34.20;97043.13;6156242;28;20296;-82
2022/04/21 12:16:37;;;;;;;6.90;5.60;;;;;;;18.37;33.76;97042.59;6138371;28;20244;-82
2022/04/21 12:19:44;;;;;;;6.33;5.73;;;;;;;18.39;33.47;97033.38;6153586;28;20233;-82
2022/04/21 12:22:49;;;;;;;5.07;4.53;;;;;;;19.17;33.60;97031.72;6154561;28;20234;-82
2022/04/21 12:25:51;;;;;;;6.30;4.60;;;;;;;19.32;32.16;97032.50;6166127;28;20678;-82
2022/04/21 12:28:58;;;;;;;5.80;5.30;;;;;;;19.13;31.65;97031.31;6143501;28;20735;-82
2022/04/21 12:32:02;;;;;;;4.80;4.40;;;;;;;18.62;32.83;97030.59;6154578;28;20257;-82
2022/04/21 12:35:08;;;;;;;3.97;3.50;;;;;;;19.64;32.09;97031.13;6138303;28;20230;-82
2022/04/21 12:41:31;;;;;;;3.90;3.40;;;;;;;20.68;31.20;97023.78;6154321;28;20316;-82
2022/04/21 12:44:33;;;;;;;4.13;3.23;;;;;;;21.42;28.88;97010.25;6153514;28;20561;-83
2022/04/21 12:47:49;;;;;;;3.27;3.03;;;;;;;20.92;28.60;97008.97;6153389;28;20280;-83
2022/04/21 12:51:18;;;;;;;5.37;3.57;;;;;;;21.18;29.80;97006.34;6104110;29;20648;-83
2022/04/21 12:54:28;;;;;;;3.30;2.93;;;;;;;21.47;28.87;97009.63;6079711;29;20688;-81
2022/04/21 12:57:30;;;;;;;3.30;2.77;;;;;;;22.28;29.71;97010.06;6106510;29;20231;-81
2022/04/21 13:00:45;;;;;;;3.10;2.83;;;;;;;22.82;26.67;97015.00;6109405;29;20698;-82
2022/04/21 13:03:47;;;;;;;3.70;3.20;;;;;;;21.50;27.26;97014.59;6093253;29;20294;-82
2022/04/21 13:06:49;;;;;;;3.30;2.97;;;;;;;21.27;28.26;97005.09;6110144;29;20230;-82
2022/04/21 13:09:52;;;;;;;3.13;2.90;;;;;;;20.46;28.42;96995.47;6108508;29;20278;-83
2022/04/21 13:12:54;;;;;;;6.00;3.27;;;;;;;20.12;28.62;97005.22;6109410;29;20234;-82
2022/04/21 13:15:56;;;;;;;3.10;2.90;;;;;;;20.39;28.66;97003.47;6108072;29;20310;-82
2022/04/21 13:18:58;;;;;;;2.67;2.47;;;;;;;20.33;28.57;96998.06;6092860;29;20219;-82
2022/04/21 13:22:20;;;;;;;4.50;3.00;;;;;;;21.26;27.43;96987.34;6144810;28;20242;-83
2022/04/21 13:25:23;;;;;;;3.33;2.80;;;;;;;21.65;27.48;96985.66;6174413;28;20241;-82
2022/04/21 13:28:26;;;;;;;2.50;2.30;;;;;;;22.41;26.04;96981.28;6141718;28;20241;-83
2022/04/21 13:34:55;;;;;;;2.50;2.30;;;;;;;22.94;25.41;96977.47;6157914;28;20322;-82
2022/04/21 13:37:57;;;;;;;3.03;2.60;;;;;;;22.76;25.30;96984.41;6140746;28;20233;-83
2022/04/21 13:40:59;;;;;;;3.67;3.37;;;;;;;21.98;25.64;96999.84;6156481;28;20610;-82
2022/04/21 13:44:01;;;;;;;2.50;2.30;;;;;;;22.44;26.60;96975.47;6156476;28;20244;-82
2022/04/21 13:47:23;;;;;;;2.33;2.13;;;;;;;24.35;24.19;96972.19;6145116;28;20537;-82
2022/04/21 13:50:25;;;;;;;2.53;2.33;;;;;;;26.92;21.46;96964.91;6158241;28;20328;-83
2022/04/21 13:53:27;;;;;;;3.77;2.47;;;;;;;26.36;21.47;96956.53;6140846;28;20229;-82
2022/04/21 13:56:29;;;;;;;3.03;2.50;;;;;;;26.17;21.93;96960.44;6157251;28;20221;-82
2022/04/21 13:59:32;;;;;;;3.80;2.43;;;;;;;27.97;20.36;96951.38;6156480;28;20314;-82
2022/04/21 14:02:34;;;;;;;3.47;2.40;;;;;;;28.69;20.24;96942.19;6158867;28;20705;-83
2022/04/21 14:05:37;;;;;;;3.07;2.67;;;;;;;29.22;18.85;96944.91;6156428;28;20574;-82
2022/04/21 14:08:44;;;;;;;3.57;2.43;;;;;;;29.37;18.29;96941.50;6170936;28;20598;-82
2022/04/21 14:11:47;;;;;;;2.20;2.00;;;;;;;28.43;18.85;96941.94;6158003;28;20718;-82
2022/04/21 14:14:49;;;;;;;3.83;2.40;;;;;;;30.00;17.97;96937.03;6158458;28;20236;-82
2022/04/21 14:17:51;;;;;;;4.70;2.33;;;;;;;30.10;17.69;96934.34;6156318;28;20497;-82
2022/04/21 14:20:54;;;;;;;2.60;2.40;;;;;;;29.25;17.84;96924.53;6141609;28;20233;-82
2022/04/21 14:24:00;;;;;;;2.97;2.20;;;;;;;30.01;18.20;96936.78;6156727;28;20222;-84
2022/04/21 14:27:03;;;;;;;1.70;1.60;;;;;;;32.00;16.54;96922.28;6160605;28;20233;-82
2022/04/21 14:30:06;;;;;;;2.20;2.00;;;;;;;33.07;15.71;96921.72;6157963;28;20261;-82
2022/04/21 14:33:09;;;;;;;2.17;2.03;;;;;;;32.50;15.44;96921.25;6156549;28;20234;-82
2022/04/21 14:36:12;;;;;;;1.80;1.70;;;;;;;32.71;15.50;96929.38;6155777;28;20245;-82
2022/04/21 14:46:16;;;;;;;6.13;2.20;;;;;;;31.90;15.67;96923.13;6156818;28;20237;-82
2022/04/21 14:49:39;;;;;;;2.23;2.03;;;;;;;31.66;16.23;96916.63;6155254;28;20253;-82
2022/04/21 14:52:41;;;;;;;2.27;2.07;;;;;;;31.73;16.72;96917.19;6157198;28;20625;-82
2022/04/21 14:55:43;;;;;;;1.90;1.80;;;;;;;31.41;16.60;96916.66;6157313;28;20365;-82
2022/04/21 14:58:45;;;;;;;2.40;2.20;;;;;;;32.01;15.60;96913.00;6140013;28;20616;-82
2022/04/21 15:01:48;;;;;;;2.80;2.00;;;;;;;32.46;15.52;96916.63;6139801;28;20749;-83
2022/04/21 15:04:50;;;;;;;2.20;2.00;;;;;;;32.18;16.36;96916.22;6139621;28;20323;-82
2022/04/21 15:07:52;;;;;;;2.33;2.10;;;;;;;32.69;15.83;96921.41;6156767;28;20332;-82
2022/04/21 15:10:54;;;;;;;2.00;1.90;;;;;;;29.50;17.86;96922.03;6156575;28;20315;-82
2022/04/21 15:13:56;;;;;;;2.20;2.00;;;;;;;27.96;19.78;96913.66;6155105;28;20372;-82
2022/04/21 15:16:58;;;;;;;2.10;1.80;;;;;;;28.33;19.39;96905.72;6155247;28;20229;-82
2022/04/21 15:20:03;;;;;;;2.20;2.00;;;;;;;27.68;19.71;96915.47;6153968;28;20233;-83
2022/04/21 15:23:07;;;;;;;2.30;2.10;;;;;;;28.80;19.07;96909.50;6155599;28;20242;-82